Weather reports worldwide

Advertisment
Cairnwell, United Kingdom (3072): temperature & dewpoint: 13.08.2018 20:00:00 - 19.08.2018 20:00:00 (BST)Cairnwell, United Kingdom (3072): wind speed & gusts: 13.08.2018 20:00:00 - 19.08.2018 20:00:00 (BST)Cairnwell, United Kingdom (3072): wind direction: 13.08.2018 20:00:00 - 19.08.2018 20:00:00 (BST)
Date & Time tt [°C] td [°C] ff [km/h] ff [kn] fx [km/h] fx [kn] dd
19.08.2018 20:00:00 8,7 8,7 15 8 - - NNE
19.08.2018 19:00:00 9,1 9,1 9 5 - - N
19.08.2018 18:00:00 9,6 9,3 8 4 - - N
19.08.2018 17:00:00 9,2 9,2 13 7 - - N
19.08.2018 16:00:00 9,4 9,4 11 6 - - N
19.08.2018 15:00:00 9,8 7,4 11 6 - - N
19.08.2018 14:00:00 9,2 8,8 11 6 - - N
19.08.2018 13:00:00 8,7 8,7 13 7 - - N
19.08.2018 12:00:00 8,5 4,7 15 8 - - NNE
19.08.2018 11:00:00 11,0 8,8 4 2 - - WSW
19.08.2018 10:00:00 8,9 8,9 5 3 - - NE
19.08.2018 09:00:00 10,5 10,5 4 2 - - SE
19.08.2018 08:00:00 10,2 10,2 2 1 - - N
19.08.2018 07:00:00 9,5 9,5 8 4 - - NNE
19.08.2018 06:00:00 9,1 9,1 4 2 - - NNE
19.08.2018 05:00:00 10,3 10,3 8 4 - - SW
19.08.2018 04:00:00 9,4 9,4 8 4 - - SSW
19.08.2018 03:00:00 8,5 8,4 9 5 - - SSW
19.08.2018 02:00:00 7,9 7,9 11 6 - - SSW
19.08.2018 01:00:00 7,7 7,7 13 7 - - SSW
19.08.2018 00:00:00 8,4 8,3 24 13 - - W
18.08.2018 23:00:00 7,8 7,7 16 9 - - SW
18.08.2018 22:00:00 7,8 7,7 29 16 - - WSW
18.08.2018 21:00:00 7,8 7,8 26 14 - - WSW
18.08.2018 20:00:00 8,5 7,6 34 18 52 28 W
18.08.2018 19:00:00 8,3 7,7 28 15 72 39 W
18.08.2018 18:00:00 8,3 8,2 42 23 74 40 W
18.08.2018 17:00:00 8,6 6,9 44 24 65 35 WSW
18.08.2018 16:00:00 9,2 5,8 57 31 83 45 WSW
18.08.2018 15:00:00 9,3 4,7 61 33 93 50 WSW
18.08.2018 14:00:00 9,3 5,5 54 29 111 60 W
18.08.2018 13:00:00 9,0 4,6 74 40 98 53 WSW
18.08.2018 12:00:00 8,4 4,8 67 36 109 59 W
18.08.2018 11:00:00 8,4 5,2 80 43 117 63 W
18.08.2018 10:00:00 7,9 5,0 68 37 117 63 WSW
18.08.2018 09:00:00 7,7 4,8 83 45 119 64 WSW
18.08.2018 08:00:00 7,7 5,6 80 43 109 59 WSW
18.08.2018 07:00:00 7,7 7,6 50 27 85 46 WSW
18.08.2018 06:00:00 7,5 6,7 63 34 93 50 WSW
18.08.2018 05:00:00 7,5 7,4 70 38 94 51 WSW
18.08.2018 04:00:00 7,9 6,2 67 36 117 63 WSW
18.08.2018 03:00:00 7,5 7,1 78 42 115 62 W
18.08.2018 02:00:00 7,6 6,6 80 43 119 64 WSW
18.08.2018 01:00:00 7,4 6,1 78 42 107 58 W
18.08.2018 00:00:00 7,4 6,6 67 36 93 50 WSW
17.08.2018 23:00:00 7,8 6,8 54 29 80 43 WSW
17.08.2018 22:00:00 7,9 7,6 70 38 113 61 WSW
17.08.2018 21:00:00 8,6 8,6 85 46 104 56 WSW
17.08.2018 20:00:00 9,6 9,6 50 27 81 44 SW
17.08.2018 19:00:00 9,4 9,4 57 31 78 42 SW
17.08.2018 18:00:00 8,8 8,8 52 28 72 39 SSW
17.08.2018 17:00:00 8,4 8,4 61 33 81 44 SSW
17.08.2018 16:00:00 7,9 7,9 61 33 83 45 SSW
17.08.2018 15:00:00 7,5 7,4 - - 85 46 -
17.08.2018 14:00:00 7,1 7,1 67 36 89 48 SSW
17.08.2018 13:00:00 6,8 6,8 65 35 85 46 SSW
17.08.2018 12:00:00 6,6 6,5 55 30 76 41 SSW
17.08.2018 11:00:00 5,8 5,7 46 25 63 34 SSW
17.08.2018 10:00:00 5,6 5,6 37 20 54 29 SW
17.08.2018 09:00:00 5,1 5,0 46 25 59 32 WSW
17.08.2018 08:00:00 5,0 4,9 46 25 61 33 W
17.08.2018 07:00:00 5,1 5,1 34 18 63 34 WSW
17.08.2018 06:00:00 5,5 5,5 41 22 61 33 W
17.08.2018 05:00:00 5,6 5,6 37 20 70 38 WSW
17.08.2018 04:00:00 5,6 5,6 41 22 63 34 WSW
17.08.2018 03:00:00 5,9 5,9 44 24 65 35 W
17.08.2018 02:00:00 5,6 5,5 46 25 78 42 W
17.08.2018 01:00:00 5,6 5,6 48 26 72 39 WSW
17.08.2018 00:00:00 5,8 5,8 42 23 59 32 WSW
16.08.2018 23:00:00 6,0 6,0 39 21 57 31 WSW
16.08.2018 22:00:00 6,0 6,0 44 24 57 31 WSW
16.08.2018 21:00:00 6,4 6,4 39 21 55 30 WSW
16.08.2018 20:00:00 7,2 5,2 39 21 63 34 W
16.08.2018 19:00:00 7,8 3,9 35 19 61 33 W
16.08.2018 18:00:00 7,7 4,9 39 21 61 33 W
16.08.2018 17:00:00 7,4 5,7 48 26 65 35 WSW
16.08.2018 16:00:00 7,1 7,1 54 29 70 38 W
16.08.2018 15:00:00 7,6 6,3 54 29 63 34 WSW
16.08.2018 14:00:00 7,2 6,2 37 20 59 32 SW
16.08.2018 13:00:00 7,0 5,5 31 17 57 31 SSW
16.08.2018 12:00:00 6,4 5,4 34 18 57 31 SSW
16.08.2018 11:00:00 6,0 6,0 44 24 57 31 SW
16.08.2018 10:00:00 5,7 5,7 35 19 54 29 SW
16.08.2018 09:00:00 5,3 5,3 35 19 52 28 SSW
16.08.2018 08:00:00 5,0 5,0 31 17 - - SSW
16.08.2018 07:00:00 4,9 4,8 28 15 - - SSW
16.08.2018 06:00:00 4,6 4,6 22 12 - - S
16.08.2018 05:00:00 4,9 4,9 28 15 46 25 WSW
16.08.2018 04:00:00 5,6 3,8 31 17 72 39 WSW
16.08.2018 03:00:00 5,8 5,6 57 31 68 37 WSW
16.08.2018 02:00:00 7,2 7,2 42 23 57 31 SW
16.08.2018 01:00:00 8,0 8,0 44 24 59 32 S
16.08.2018 00:00:00 7,7 7,7 37 20 61 33 SSW
15.08.2018 23:00:00 8,0 8,0 59 32 74 40 SW
15.08.2018 22:00:00 8,1 7,8 59 32 78 42 SW
15.08.2018 21:00:00 8,5 7,2 59 32 78 42 SW
15.08.2018 20:00:00 8,6 6,4 61 33 76 41 SW
15.08.2018 19:00:00 8,4 6,6 52 28 94 51 SW
15.08.2018 18:00:00 8,7 6,6 63 34 83 45 SW
15.08.2018 17:00:00 9,2 8,9 44 24 81 44 WSW
15.08.2018 16:00:00 10,5 7,2 67 36 87 47 WSW
15.08.2018 15:00:00 10,4 7,3 57 31 80 43 SW
15.08.2018 14:00:00 10,7 7,5 65 35 80 43 SW
15.08.2018 13:00:00 10,7 7,7 61 33 78 42 SW
15.08.2018 12:00:00 10,3 8,6 54 29 70 38 SW
15.08.2018 11:00:00 9,9 9,9 52 28 74 40 SW
15.08.2018 10:00:00 9,9 9,1 52 28 72 39 WSW
15.08.2018 09:00:00 10,0 10,0 50 27 76 41 WSW
15.08.2018 08:00:00 10,4 10,4 50 27 80 43 SW
15.08.2018 07:00:00 10,5 10,5 39 21 52 28 SSW
15.08.2018 06:00:00 10,1 10,1 34 18 - - SSW
15.08.2018 05:00:00 9,8 9,7 34 18 - - SSW
15.08.2018 04:00:00 9,3 9,3 39 21 - - SSW
15.08.2018 03:00:00 8,8 8,7 34 18 - - SSW
15.08.2018 02:00:00 8,8 8,8 15 8 52 28 SSW
15.08.2018 01:00:00 8,6 8,6 39 21 70 38 SW
15.08.2018 00:00:00 8,5 8,5 37 20 74 40 WSW
14.08.2018 23:00:00 9,0 9,0 46 25 76 41 WSW
14.08.2018 22:00:00 9,4 9,4 48 26 70 38 W
14.08.2018 21:00:00 10,2 9,6 46 25 55 30 W
14.08.2018 20:00:00 10,6 8,6 31 17 74 40 W
14.08.2018 19:00:00 10,9 10,9 41 22 54 29 WSW
14.08.2018 18:00:00 11,3 10,4 35 19 61 33 WSW
14.08.2018 17:00:00 11,4 11,4 37 20 57 31 SW
14.08.2018 16:00:00 11,0 10,9 29 16 52 28 SSW
14.08.2018 15:00:00 10,5 10,5 37 20 48 26 SW
14.08.2018 14:00:00 10,0 10,0 28 15 - - SW
14.08.2018 13:00:00 9,7 9,6 28 15 46 25 SW
14.08.2018 12:00:00 9,3 9,3 26 14 52 28 WSW
14.08.2018 11:00:00 9,0 9,0 29 16 46 25 W
14.08.2018 10:00:00 8,9 8,8 16 9 - - SSW
14.08.2018 09:00:00 8,7 8,7 15 8 - - WSW
14.08.2018 08:00:00 8,9 8,6 28 15 - - W
14.08.2018 07:00:00 8,2 8,2 31 17 54 29 WNW
14.08.2018 06:00:00 7,7 7,6 29 16 48 26 W
14.08.2018 05:00:00 7,6 7,6 24 13 - - W
14.08.2018 04:00:00 8,1 8,1 9 5 - - S
14.08.2018 03:00:00 8,7 8,7 21 11 - - SSW
14.08.2018 02:00:00 9,3 9,2 22 12 - - SW
14.08.2018 01:00:00 9,6 9,6 24 13 - - SSW
14.08.2018 00:00:00 9,7 9,7 16 9 - - SSW
13.08.2018 23:00:00 9,7 9,7 21 11 - - SSW
13.08.2018 22:00:00 9,8 9,7 22 12 - - SSW
13.08.2018 21:00:00 9,9 9,9 22 12 - - S
13.08.2018 20:00:00 10,0 10,0 21 11 - - SSW

tt = temperature
td = dewpoint
ff = wind speed
fx = gusts
dd = wind direction

Next stations